createdAt,value
2023-02-14T00:02:28.534Z,103152.25
2023-02-14T00:06:35.155Z,103152.41
2023-02-14T00:10:39.580Z,103145.56
2023-02-14T00:15:00.033Z,103141.31
2023-02-14T00:19:05.565Z,103143.41
2023-02-14T00:23:13.406Z,103141.09
2023-02-14T00:27:17.545Z,103135.03
2023-02-14T00:31:20.833Z,103135.41
2023-02-14T00:35:24.412Z,103136.53
2023-02-14T00:39:27.241Z,103128.16
2023-02-14T00:43:32.115Z,103128.28
2023-02-14T00:47:34.889Z,103128.66
2023-02-14T00:51:38.005Z,103125.66
2023-02-14T00:55:41.642Z,103133.72
2023-02-14T00:59:46.420Z,103130.31
2023-02-14T01:03:49.548Z,103133.25
2023-02-14T01:07:55.682Z,103136.94
2023-02-14T01:11:58.630Z,103145.13
2023-02-14T01:16:07.788Z,103143.44
2023-02-14T01:20:12.200Z,103139.19
2023-02-14T01:24:15.854Z,103135.03
2023-02-14T01:28:19.176Z,103132.59
2023-02-14T01:32:23.364Z,103133.72
2023-02-14T01:36:28.712Z,103139.22
2023-02-14T01:40:31.923Z,103141.28
2023-02-14T01:45:01.971Z,103133.75
2023-02-14T01:49:10.527Z,103135.72
2023-02-14T01:53:17.092Z,103137.34
2023-02-14T01:57:23.843Z,103144.69
2023-02-14T02:01:28.419Z,103141.25
2023-02-14T02:05:32.870Z,103141.41
2023-02-14T02:09:42.861Z,103137.16
2023-02-14T02:13:46.262Z,103135.41
2023-02-14T02:17:56.826Z,103133.00
2023-02-14T02:22:45.358Z,103130.44
2023-02-14T02:27:08.737Z,103121.69
2023-02-14T02:31:32.408Z,103122.63
2023-02-14T02:35:50.333Z,103112.16
2023-02-14T02:40:16.968Z,103107.03
2023-02-14T02:44:26.985Z,103112.53
2023-02-14T02:48:38.012Z,103098.53
2023-02-14T02:53:03.976Z,103099.63
2023-02-14T02:57:16.191Z,103099.03
2023-02-14T03:01:25.509Z,103097.56
2023-02-14T03:05:28.726Z,103098.94
2023-02-14T03:10:00.926Z,103096.88
2023-02-14T03:14:16.525Z,103093.47
2023-02-14T03:18:50.506Z,103093.84
2023-02-14T03:23:04.188Z,103102.03
2023-02-14T03:27:16.298Z,103088.88
2023-02-14T03:31:27.820Z,103093.25
2023-02-14T03:35:35.900Z,103092.66
2023-02-14T03:39:44.274Z,103086.56
2023-02-14T03:43:52.220Z,103088.53
2023-02-14T03:47:57.186Z,103086.94
2023-02-14T03:52:04.146Z,103081.97
2023-02-14T03:56:13.918Z,103081.69
2023-02-14T04:00:19.394Z,103087.47
2023-02-14T04:04:26.711Z,103090.16
2023-02-14T04:08:31.356Z,103086.84
2023-02-14T04:12:37.993Z,103085.41
2023-02-14T04:16:56.499Z,103083.06
2023-02-14T04:20:59.581Z,103082.34
2023-02-14T04:25:02.686Z,103077.09
2023-02-14T04:29:05.462Z,103078.47
2023-02-14T04:33:10.659Z,103077.13
2023-02-14T04:37:14.301Z,103086.38
2023-02-14T04:41:17.170Z,103086.38
2023-02-14T04:45:20.422Z,103072.25
2023-02-14T04:49:24.617Z,103072.38
2023-02-14T04:53:27.553Z,103062.59
2023-02-14T04:57:31.046Z,103053.00
2023-02-14T05:01:33.950Z,103055.06
2023-02-14T05:05:39.444Z,103056.78
2023-02-14T05:09:42.260Z,103050.56
2023-02-14T05:13:45.066Z,103052.41
2023-02-14T05:17:47.840Z,103049.94
2023-02-14T05:21:51.995Z,103047.41
2023-02-14T05:25:54.831Z,103052.25
2023-02-14T05:29:57.685Z,103053.47
2023-02-14T05:34:00.522Z,103049.34
2023-02-14T05:38:04.816Z,103057.38
2023-02-14T05:46:10.304Z,103051.88
2023-02-14T05:50:13.204Z,103041.19
2023-02-14T05:54:17.360Z,103047.53
2023-02-14T05:58:20.167Z,103043.25
2023-02-14T06:02:25.437Z,103048.97
2023-02-14T06:06:28.274Z,103050.91
2023-02-14T06:10:32.475Z,103054.81
2023-02-14T06:14:35.366Z,103051.50
2023-02-14T06:18:38.198Z,103058.81
2023-02-14T06:22:41.008Z,103060.66
2023-02-14T06:26:45.223Z,103064.41
2023-02-14T06:30:48.295Z,103071.72
2023-02-14T06:34:51.340Z,103067.47
2023-02-14T06:38:54.222Z,103069.50
2023-02-14T06:42:58.449Z,103080.47
2023-02-14T06:47:01.304Z,103074.50
2023-02-14T06:51:04.194Z,103076.44
2023-02-14T06:55:07.614Z,103069.72
2023-02-14T06:59:11.764Z,103074.81
2023-02-14T07:03:14.988Z,103077.97
2023-02-14T07:07:17.809Z,103070.19
2023-02-14T07:11:20.620Z,103075.63
2023-02-14T07:15:25.122Z,103077.72
2023-02-14T07:19:28.006Z,103075.75
2023-02-14T07:23:30.820Z,103081.84
2023-02-14T07:27:33.786Z,103084.19
2023-02-14T07:31:38.061Z,103072.38
2023-02-14T07:35:41.038Z,103075.56
2023-02-14T07:39:43.887Z,103081.53
2023-02-14T07:43:46.708Z,103077.53
2023-02-14T07:47:52.088Z,103082.53
2023-02-14T07:51:54.869Z,103084.72
2023-02-14T07:55:57.779Z,103088.63
2023-02-14T08:00:00.636Z,103078.56
2023-02-14T08:04:05.112Z,103088.88
2023-02-14T08:08:07.877Z,103081.34
2023-02-14T08:12:28.443Z,103094.53
2023-02-14T08:16:32.326Z,103088.91
2023-02-14T08:20:36.613Z,103088.56
2023-02-14T08:24:39.352Z,103084.56
2023-02-14T08:28:42.154Z,103084.91
2023-02-14T08:32:45.162Z,103094.06
2023-02-14T08:36:49.384Z,103081.00
2023-02-14T08:40:52.189Z,103079.69
2023-02-14T08:44:54.997Z,103079.91
2023-02-14T08:48:57.812Z,103077.31
2023-02-14T08:53:02.115Z,103076.34
2023-02-14T08:57:05.016Z,103071.81
2023-02-14T09:01:09.764Z,103078.84
2023-02-14T09:05:13.135Z,103067.06
2023-02-14T09:09:19.172Z,103062.00
2023-02-14T09:13:22.055Z,103068.53
2023-02-14T09:17:25.039Z,103072.31
2023-02-14T09:21:30.219Z,103067.66
2023-02-14T09:25:34.586Z,103065.13
2023-02-14T09:29:37.451Z,103053.50
2023-02-14T09:33:40.664Z,103061.91
2023-02-14T09:37:43.479Z,103058.84
2023-02-14T09:42:05.572Z,103058.41
2023-02-14T09:46:12.549Z,103062.13
2023-02-14T09:50:20.989Z,103046.75
2023-02-14T09:54:28.479Z,103046.88
2023-02-14T09:58:37.779Z,103044.25
2023-02-14T10:02:49.896Z,103046.72
2023-02-14T10:06:58.098Z,103043.09
2023-02-14T10:11:06.353Z,103035.34
2023-02-14T10:15:16.867Z,103031.97
2023-02-14T10:19:24.479Z,103026.31
2023-02-14T10:23:33.010Z,103028.41
2023-02-14T10:27:39.570Z,103023.50
2023-02-14T10:31:55.517Z,103021.78
2023-02-14T10:36:03.562Z,103015.34
2023-02-14T10:40:24.510Z,103010.91
2023-02-14T10:44:40.953Z,103008.97
2023-02-14T10:48:56.345Z,103005.28
2023-02-14T10:53:08.577Z,103008.22
2023-02-14T10:57:17.192Z,103001.50
2023-02-14T11:01:20.441Z,103001.56
2023-02-14T11:05:32.239Z,103000.72
2023-02-14T11:09:35.042Z,102996.81
2023-02-14T11:13:39.952Z,103005.69
2023-02-14T11:17:43.812Z,102996.00
2023-02-14T11:21:50.586Z,102998.16
2023-02-14T11:25:56.691Z,102999.03
2023-02-14T11:30:02.146Z,102995.94
2023-02-14T11:34:19.938Z,102977.91
2023-02-14T11:38:30.448Z,102980.88
2023-02-14T11:42:42.616Z,102977.19
2023-02-14T11:46:53.089Z,102959.16
2023-02-14T11:51:00.259Z,102960.94
2023-02-14T11:55:05.847Z,102949.63
2023-02-14T11:59:08.703Z,102945.13
2023-02-14T12:03:20.320Z,102945.38
2023-02-14T12:07:27.498Z,102934.16
2023-02-14T12:11:33.132Z,102925.66
2023-02-14T12:15:38.750Z,102925.53
2023-02-14T12:19:46.304Z,102918.47
2023-02-14T12:23:56.873Z,102912.31
2023-02-14T12:28:06.103Z,102905.75
2023-02-14T12:32:20.691Z,102900.50
2023-02-14T12:36:39.606Z,102892.13
2023-02-14T12:40:52.169Z,102890.06
2023-02-14T12:45:05.229Z,102885.91
2023-02-14T12:49:36.386Z,102877.63
2023-02-14T12:54:07.103Z,102878.09
2023-02-14T12:58:25.910Z,102872.25
2023-02-14T13:03:11.224Z,102865.28
2023-02-14T13:07:23.989Z,102865.47
2023-02-14T13:11:37.514Z,102850.00
2023-02-14T13:15:48.665Z,102842.09
2023-02-14T13:20:03.330Z,102842.09
2023-02-14T13:24:16.346Z,102831.84
2023-02-14T13:28:20.506Z,102834.16
2023-02-14T13:32:28.406Z,102833.53
2023-02-14T13:36:33.543Z,102826.25
2023-02-14T13:40:37.785Z,102810.53
2023-02-14T13:44:45.349Z,102821.47
2023-02-14T13:49:00.242Z,102807.19
2023-02-14T13:53:14.510Z,102797.38
2023-02-14T13:57:31.511Z,102796.13
2023-02-14T14:01:39.056Z,102793.00
2023-02-14T14:06:05.160Z,102782.91
2023-02-14T14:10:12.856Z,102785.63
2023-02-14T14:14:36.545Z,102780.38
2023-02-14T14:18:44.161Z,102789.00
2023-02-14T14:22:48.688Z,102786.47
2023-02-14T14:27:01.140Z,102777.63
2023-02-14T14:31:04.102Z,102778.69
2023-02-14T14:35:20.567Z,102782.06
2023-02-14T14:39:28.512Z,102776.41
2023-02-14T14:43:35.907Z,102773.66
2023-02-14T14:47:43.927Z,102765.03
2023-02-14T14:51:47.416Z,102764.41
2023-02-14T14:55:52.135Z,102757.03
2023-02-14T15:00:10.707Z,102762.03
2023-02-14T15:04:19.477Z,102752.16
2023-02-14T15:08:31.818Z,102747.72
2023-02-14T15:12:53.510Z,102749.38
2023-02-14T15:17:01.617Z,102752.34
2023-02-14T15:21:06.614Z,102738.66
2023-02-14T15:25:12.208Z,102741.81
2023-02-14T15:29:23.168Z,102746.00
2023-02-14T15:33:29.147Z,102742.38
2023-02-14T15:37:33.155Z,102738.38
2023-02-14T15:41:37.214Z,102733.88
2023-02-14T15:45:40.696Z,102738.91
2023-02-14T15:49:47.056Z,102736.75
2023-02-14T15:53:53.776Z,102734.81
2023-02-14T15:57:59.268Z,102729.28
2023-02-14T16:02:06.212Z,102719.81
2023-02-14T16:06:17.158Z,102720.81
2023-02-14T16:10:25.486Z,102717.13
2023-02-14T16:14:32.159Z,102718.13
2023-02-14T16:18:37.681Z,102715.28
2023-02-14T16:22:42.244Z,102718.09
2023-02-14T16:26:46.740Z,102727.19
2023-02-14T16:30:55.276Z,102720.53
2023-02-14T16:34:58.360Z,102726.00
2023-02-14T16:39:04.977Z,102728.34
2023-02-14T16:43:12.307Z,102724.34
2023-02-14T16:47:17.963Z,102728.91
2023-02-14T16:51:22.621Z,102737.41
2023-02-14T16:55:29.918Z,102734.00
2023-02-14T16:59:32.951Z,102729.16
2023-02-14T17:03:35.735Z,102733.25
2023-02-14T17:07:40.318Z,102740.34
2023-02-14T17:11:48.576Z,102742.81
2023-02-14T17:15:52.181Z,102742.78
2023-02-14T17:19:55.540Z,102741.00
2023-02-14T17:23:58.578Z,102733.00
2023-02-14T17:28:02.840Z,102737.50
2023-02-14T17:32:06.601Z,102736.72
2023-02-14T17:36:12.093Z,102745.28
2023-02-14T17:40:15.605Z,102737.53
2023-02-14T17:44:19.833Z,102734.56
2023-02-14T17:48:22.718Z,102740.19
2023-02-14T17:52:26.753Z,102739.53
2023-02-14T17:56:29.635Z,102740.38
2023-02-14T18:00:33.850Z,102746.97
2023-02-14T18:04:37.260Z,102740.41
2023-02-14T18:08:42.332Z,102746.34
2023-02-14T18:12:45.865Z,102737.03
2023-02-14T18:16:49.965Z,102740.88
2023-02-14T18:20:56.429Z,102732.06
2023-02-14T18:24:59.576Z,102734.44
2023-02-14T18:29:06.410Z,102730.00
2023-02-14T18:33:10.559Z,102729.31
2023-02-14T18:37:14.754Z,102725.88
2023-02-14T18:41:19.901Z,102724.84
2023-02-14T18:45:22.764Z,102709.63
2023-02-14T18:49:26.980Z,102703.03
2023-02-14T18:53:29.814Z,102699.28
2023-02-14T18:57:34.762Z,102690.81
2023-02-14T19:01:41.538Z,102699.06
2023-02-14T19:05:45.818Z,102689.81
2023-02-14T19:09:48.602Z,102696.00
2023-02-14T19:13:54.275Z,102691.25
2023-02-14T19:17:57.010Z,102698.47
2023-02-14T19:22:02.250Z,102695.34
2023-02-14T19:26:11.237Z,102695.91
2023-02-14T19:30:14.995Z,102693.78
2023-02-14T19:34:19.607Z,102689.00
2023-02-14T19:38:23.887Z,102694.88
2023-02-14T19:42:26.660Z,102693.66
2023-02-14T19:46:30.359Z,102680.09
2023-02-14T19:50:33.140Z,102690.88
2023-02-14T19:54:40.643Z,102683.56
2023-02-14T19:58:43.445Z,102675.09
2023-02-14T20:02:48.162Z,102665.63
2023-02-14T20:06:53.020Z,102665.81
2023-02-14T20:10:57.277Z,102660.19
2023-02-14T20:15:00.124Z,102666.69
2023-02-14T20:19:03.582Z,102667.25
2023-02-14T20:23:06.400Z,102658.91
2023-02-14T20:27:10.602Z,102651.16
2023-02-14T20:31:15.816Z,102653.06
2023-02-14T20:35:18.756Z,102640.50
2023-02-14T20:39:22.679Z,102636.41
2023-02-14T20:43:27.219Z,102637.56
2023-02-14T20:47:30.017Z,102638.88
2023-02-14T20:51:32.990Z,102642.03
2023-02-14T20:55:41.697Z,102638.38
2023-02-14T20:59:45.865Z,102634.91
2023-02-14T21:03:52.055Z,102636.91
2023-02-14T21:07:54.878Z,102629.81
2023-02-14T21:11:58.395Z,102636.50
2023-02-14T21:16:04.779Z,102630.88
2023-02-14T21:20:10.545Z,102633.84
2023-02-14T21:24:15.082Z,102630.44
2023-02-14T21:28:17.997Z,102622.69
2023-02-14T21:32:22.247Z,102625.81
2023-02-14T21:36:27.371Z,102615.81
2023-02-14T21:40:30.199Z,102625.59
2023-02-14T21:44:50.554Z,102618.13
2023-02-14T21:49:12.757Z,102613.50
2023-02-14T21:53:15.541Z,102616.59
2023-02-14T21:57:18.347Z,102608.69
2023-02-14T22:01:23.603Z,102608.41
2023-02-14T22:05:27.858Z,102605.47
2023-02-14T22:09:30.766Z,102605.75
2023-02-14T22:13:34.190Z,102613.38
2023-02-14T22:17:37.705Z,102616.53
2023-02-14T22:21:44.339Z,102611.72
2023-02-14T22:25:47.171Z,102608.50
2023-02-14T22:29:49.955Z,102608.06
2023-02-14T22:33:53.186Z,102599.31
2023-02-14T22:37:57.330Z,102600.31
2023-02-14T22:42:02.303Z,102600.56
2023-02-14T22:46:07.445Z,102597.19
2023-02-14T22:50:10.730Z,102591.97
2023-02-14T22:54:16.596Z,102592.53
2023-02-14T22:58:19.413Z,102604.53
2023-02-14T23:02:22.315Z,102602.16
2023-02-14T23:06:26.188Z,102611.03
2023-02-14T23:10:30.351Z,102598.06
2023-02-14T23:14:50.807Z,102609.78
2023-02-14T23:19:14.358Z,102602.13
2023-02-14T23:23:18.412Z,102606.81
2023-02-14T23:27:34.077Z,102608.66
2023-02-14T23:31:36.964Z,102603.38
2023-02-14T23:35:40.011Z,102594.78
2023-02-14T23:39:42.892Z,102589.69
2023-02-14T23:43:49.715Z,102581.34
2023-02-14T23:47:52.543Z,102577.97
2023-02-14T23:51:57.419Z,102576.97
2023-02-14T23:56:03.979Z,102574.28
